Time;durP1;ratioP1;P1;durP2;ratioP2;P2;SDS_P1;SDS_P2;PMS_P1;PMS_P2;Temp;Humidity;BMP_temperature;BMP_pressure;BME280_temperature;BME280_humidity;BME280_pressure;Samples;Min_cycle;Max_cycle;Signal;HPM_P1;HPM_P2
2022/08/06 00:00:58;;;;;;;3.55;1.17;;;12.20;99.90;;;;;;5033517;28;20095;-65
2022/08/06 00:03:24;;;;;;;5.72;1.58;;;12.10;99.90;;;;;;5032417;28;20400;-65
2022/08/06 00:05:50;;;;;;;2.92;1.08;;;12.30;99.90;;;;;;5033776;28;20041;-65
2022/08/06 00:08:16;;;;;;;2.53;1.10;;;12.30;99.90;;;;;;5047610;28;20040;-65
2022/08/06 00:10:41;;;;;;;2.75;1.25;;;12.30;99.90;;;;;;5041098;28;20483;-65
2022/08/06 00:13:07;;;;;;;6.47;1.10;;;;;;;;;;5052472;28;20128;-65
2022/08/06 00:15:34;;;;;;;2.95;1.33;;;12.20;99.90;;;;;;5034142;28;20143;-65
2022/08/06 00:17:59;;;;;;;5.03;1.40;;;12.00;99.90;;;;;;5033639;28;20373;-65
2022/08/06 00:20:25;;;;;;;2.45;1.17;;;12.00;99.90;;;;;;5031976;28;20380;-65
2022/08/06 00:22:52;;;;;;;2.45;0.98;;;12.10;99.90;;;;;;5032199;28;20045;-65
2022/08/06 00:25:17;;;;;;;4.15;1.58;;;12.10;99.90;;;;;;5033534;28;20045;-65
2022/08/06 00:27:43;;;;;;;3.15;1.60;;;12.10;99.90;;;;;;5037119;28;20041;-66
2022/08/06 00:30:09;;;;;;;3.85;1.58;;;12.10;99.90;;;;;;5043828;28;20041;-65
2022/08/06 00:32:35;;;;;;;3.53;1.38;;;11.90;99.90;;;;;;5032435;28;20514;-65
2022/08/06 00:35:01;;;;;;;4.85;1.65;;;11.80;99.90;;;;;;5033105;28;20116;-65
2022/08/06 00:37:28;;;;;;;3.50;1.25;;;11.70;99.90;;;;;;5031850;28;20159;-65
2022/08/06 00:39:55;;;;;;;3.20;1.30;;;11.60;99.90;;;;;;5046013;28;20084;-66
2022/08/06 00:42:20;;;;;;;4.22;1.63;;;11.60;99.90;;;;;;5033322;28;20037;-65
2022/08/06 00:44:46;;;;;;;4.57;1.52;;;11.50;99.90;;;;;;5035387;28;20087;-65
2022/08/06 00:47:12;;;;;;;2.30;1.38;;;11.50;99.90;;;;;;5062934;28;20048;-65
2022/08/06 00:49:37;;;;;;;2.90;1.45;;;;;;;;;;5036961;28;20459;-65
2022/08/06 00:52:03;;;;;;;4.00;2.30;;;11.70;99.90;;;;;;5032722;28;20045;-65
2022/08/06 00:54:29;;;;;;;4.75;1.63;;;11.60;99.90;;;;;;5033109;28;20077;-65
2022/08/06 00:56:54;;;;;;;4.22;1.52;;;11.80;99.90;;;;;;5032708;28;20124;-65
2022/08/06 00:59:20;;;;;;;3.58;1.60;;;11.70;99.90;;;;;;5032441;28;20053;-65
2022/08/06 01:01:46;;;;;;;4.78;1.83;;;11.70;99.90;;;;;;5046819;28;20041;-65
2022/08/06 01:04:11;;;;;;;2.92;1.65;;;11.90;99.90;;;;;;5032723;28;20040;-65
2022/08/06 01:06:37;;;;;;;9.30;2.30;;;11.70;99.90;;;;;;5046630;28;20461;-65
2022/08/06 01:09:02;;;;;;;5.50;2.08;;;11.80;99.90;;;;;;5031331;28;20052;-65
2022/08/06 01:11:28;;;;;;;5.63;1.40;;;11.60;99.90;;;;;;5044987;28;20049;-66
2022/08/06 01:13:54;;;;;;;2.97;1.35;;;;;;;;;;5032736;28;20044;-65
2022/08/06 01:16:46;;;;;;;2.67;1.42;;;11.60;99.90;;;;;;5032570;28;20038;-65
2022/08/06 01:19:40;;;;;;;4.00;2.00;;;11.70;99.90;;;;;;5031382;28;20021;-65
2022/08/06 01:22:23;;;;;;;7.22;1.70;;;11.60;99.90;;;;;;5045072;28;20049;-65
2022/08/06 01:25:13;;;;;;;5.90;1.83;;;11.80;99.90;;;;;;5032391;28;20075;-65
2022/08/06 01:27:59;;;;;;;2.03;1.60;;;11.50;99.90;;;;;;5051135;28;20067;-65
2022/08/06 01:30:32;;;;;;;2.60;1.77;;;11.50;99.90;;;;;;5040542;28;20041;-65
2022/08/06 01:33:25;;;;;;;6.80;2.80;;;11.50;99.90;;;;;;5044917;28;20121;-65
2022/08/06 01:35:54;;;;;;;2.92;2.17;;;11.50;99.90;;;;;;5028772;28;20104;-65
2022/08/06 01:38:32;;;;;;;2.25;1.80;;;11.40;99.90;;;;;;5032274;28;20112;-65
2022/08/06 01:41:01;;;;;;;4.75;2.00;;;11.30;99.90;;;;;;5031105;28;20133;-65
2022/08/06 01:43:30;;;;;;;4.93;1.58;;;11.40;99.90;;;;;;5031129;28;20037;-65
2022/08/06 01:45:57;;;;;;;3.28;1.70;;;11.20;99.90;;;;;;5035989;28;20037;-65
2022/08/06 01:48:26;;;;;;;4.35;1.48;;;11.10;99.90;;;;;;5032199;28;20515;-65
2022/08/06 01:50:57;;;;;;;2.20;1.35;;;10.90;99.90;;;;;;5032352;28;20041;-65
2022/08/06 01:53:28;;;;;;;6.07;1.60;;;11.00;99.90;;;;;;5037216;28;20087;-65
2022/08/06 01:55:57;;;;;;;3.22;1.58;;;11.10;99.90;;;;;;5040288;28;20137;-65
2022/08/06 01:58:27;;;;;;;2.05;1.17;;;10.60;99.90;;;;;;5031707;28;20060;-65
2022/08/06 02:00:54;;;;;;;3.03;1.63;;;10.80;99.90;;;;;;5041037;28;20480;-65
2022/08/06 02:03:29;;;;;;;4.85;1.50;;;10.90;99.90;;;;;;5035108;28;20103;-65
2022/08/06 02:05:56;;;;;;;;;;;10.80;99.90;;;;;;5032528;28;20447;-65
2022/08/06 02:08:26;;;;;;;5.53;1.52;;;10.70;99.90;;;;;;5044642;28;19917;-65
2022/08/06 02:10:55;;;;;;;3.97;1.05;;;10.90;99.90;;;;;;5031924;28;20077;-65
2022/08/06 02:13:23;;;;;;;3.70;1.75;;;10.40;99.90;;;;;;5058454;28;20036;-65
2022/08/06 02:15:49;;;;;;;4.05;1.45;;;;;;;;;;5068142;28;20044;-65
2022/08/06 02:18:16;;;;;;;4.30;1.40;;;10.50;99.90;;;;;;5075566;28;20086;-65
2022/08/06 02:20:47;;;;;;;4.43;1.65;;;10.60;99.90;;;;;;5067799;28;20044;-65
2022/08/06 02:23:17;;;;;;;2.50;1.50;;;10.40;99.90;;;;;;5062939;28;20398;-65
2022/08/06 02:25:46;;;;;;;4.57;1.67;;;10.60;99.90;;;;;;5074148;28;20463;-65
2022/08/06 02:28:14;;;;;;;3.05;1.58;;;10.60;99.90;;;;;;5075757;28;20090;-65
2022/08/06 02:30:43;;;;;;;4.63;1.75;;;10.70;99.90;;;;;;5060997;28;20048;-65
2022/08/06 02:33:09;;;;;;;4.90;1.73;;;10.70;99.90;;;;;;5065077;28;20556;-65
2022/08/06 02:35:42;;;;;;;2.28;1.45;;;10.60;99.90;;;;;;5069103;28;20082;-65
2022/08/06 02:38:17;;;;;;;1.75;1.08;;;10.70;99.90;;;;;;5068174;28;20545;-65
2022/08/06 02:40:52;;;;;;;3.00;1.25;;;10.70;99.90;;;;;;5075315;28;20064;-66
2022/08/06 02:43:38;;;;;;;3.05;1.15;;;10.40;99.90;;;;;;5075503;28;20045;-66
2022/08/06 02:46:25;;;;;;;2.60;1.20;;;10.60;99.90;;;;;;5067860;28;20040;-65
2022/08/06 02:49:04;;;;;;;1.20;1.10;;;10.50;99.90;;;;;;5067145;28;20036;-65
2022/08/06 02:51:38;;;;;;;4.00;1.30;;;10.60;99.90;;;;;;5073910;28;20037;-65
2022/08/06 02:54:07;;;;;;;0.95;0.95;;;10.30;99.90;;;;;;5061167;28;20045;-66
2022/08/06 02:56:36;;;;;;;1.15;1.05;;;10.30;99.90;;;;;;5073837;28;20032;-65
2022/08/06 02:59:02;;;;;;;1.35;1.17;;;10.20;99.90;;;;;;5073461;28;20545;-65
2022/08/06 03:01:35;;;;;;;2.00;1.33;;;10.40;99.90;;;;;;5073400;28;20041;-65
2022/08/06 03:04:03;;;;;;;2.25;1.70;;;10.30;99.90;;;;;;5073855;28;20406;-66
2022/08/06 03:06:31;;;;;;;2.65;1.48;;;10.50;99.90;;;;;;5074789;28;20076;-66
2022/08/06 03:09:00;;;;;;;1.77;1.10;;;10.30;99.90;;;;;;5065554;28;20091;-65
2022/08/06 03:11:28;;;;;;;3.00;1.25;;;10.40;99.90;;;;;;5070504;28;20036;-65
2022/08/06 03:13:56;;;;;;;2.13;1.25;;;10.40;99.90;;;;;;5073516;28;20044;-66
2022/08/06 03:16:23;;;;;;;2.95;1.00;;;10.30;99.90;;;;;;5059437;28;20059;-66
2022/08/06 03:18:51;;;;;;;1.77;1.42;;;10.40;99.90;;;;;;5068081;28;20403;-65
2022/08/06 03:21:19;;;;;;;1.75;1.27;;;10.30;99.90;;;;;;5054468;28;20041;-65
2022/08/06 03:23:45;;;;;;;1.90;1.00;;;10.30;99.90;;;;;;5072739;28;20040;-65
2022/08/06 03:26:11;;;;;;;1.65;0.85;;;10.00;99.90;;;;;;5073220;28;20044;-65
2022/08/06 03:28:37;;;;;;;3.10;1.52;;;10.00;99.90;;;;;;5041456;28;20398;-66
2022/08/06 03:31:04;;;;;;;1.67;1.08;;;9.90;99.90;;;;;;5073346;28;20044;-65
2022/08/06 03:33:30;;;;;;;1.25;0.90;;;10.10;99.90;;;;;;5074579;28;20433;-65
2022/08/06 03:35:58;;;;;;;1.95;1.08;;;10.00;99.90;;;;;;5074389;28;20106;-65
2022/08/06 03:38:26;;;;;;;1.33;1.00;;;9.90;99.90;;;;;;5061067;28;20434;-65
2022/08/06 03:40:53;;;;;;;1.48;1.20;;;10.00;99.90;;;;;;5073367;28;20394;-65
2022/08/06 03:43:18;;;;;;;1.77;1.23;;;9.90;99.90;;;;;;5072986;28;20044;-65
2022/08/06 03:45:53;;;;;;;1.38;1.05;;;9.80;99.90;;;;;;5072495;28;20064;-65
2022/08/06 03:48:25;;;;;;;3.33;1.97;;;9.80;99.90;;;;;;5074086;28;20083;-66
2022/08/06 03:50:53;;;;;;;3.42;1.20;;;9.90;99.90;;;;;;5058671;28;20611;-66
2022/08/06 03:53:28;;;;;;;1.75;1.10;;;9.80;99.90;;;;;;5063375;28;20533;-65
2022/08/06 03:55:57;;;;;;;1.60;1.20;;;9.90;99.90;;;;;;5070049;28;20043;-65
2022/08/06 03:58:24;;;;;;;2.53;1.05;;;9.80;99.90;;;;;;5064658;28;20136;-65
2022/08/06 04:01:04;;;;;;;1.48;1.20;;;9.70;99.90;;;;;;5069388;28;20508;-66
2022/08/06 04:03:31;;;;;;;1.73;1.20;;;9.80;99.90;;;;;;5074091;28;20029;-65
2022/08/06 04:05:58;;;;;;;1.17;0.98;;;9.90;99.90;;;;;;5073601;28;20037;-65
2022/08/06 04:08:25;;;;;;;2.08;1.00;;;9.90;99.90;;;;;;5074005;28;20036;-65
2022/08/06 04:10:52;;;;;;;1.80;1.40;;;;;;;;;;5073856;28;20111;-66
2022/08/06 04:13:21;;;;;;;2.08;1.20;;;9.90;99.90;;;;;;5046507;28;20413;-66
2022/08/06 04:15:47;;;;;;;0.80;0.80;;;9.80;99.90;;;;;;5072280;28;20111;-65
2022/08/06 04:18:21;;;;;;;3.92;1.02;;;9.80;99.90;;;;;;5072191;28;20416;-65
2022/08/06 04:20:50;;;;;;;1.10;0.88;;;9.80;99.90;;;;;;5061885;28;20059;-66
2022/08/06 04:23:15;;;;;;;1.67;0.88;;;10.00;99.90;;;;;;5067804;28;20371;-65
2022/08/06 04:25:48;;;;;;;1.17;1.02;;;10.10;99.90;;;;;;5073566;28;20043;-66
2022/08/06 04:28:17;;;;;;;2.13;1.30;;;10.20;99.90;;;;;;5059995;28;20049;-65
2022/08/06 04:30:44;;;;;;;1.58;1.08;;;10.20;99.90;;;;;;5058645;28;20051;-66
2022/08/06 04:33:15;;;;;;;2.92;1.30;;;10.20;99.90;;;;;;5073427;28;20410;-66
2022/08/06 04:35:42;;;;;;;2.25;1.05;;;10.30;99.90;;;;;;5055432;28;20040;-66
2022/08/06 04:38:09;;;;;;;1.55;1.45;;;10.50;99.90;;;;;;5071508;28;20040;-65
2022/08/06 04:40:37;;;;;;;2.58;1.27;;;10.70;99.90;;;;;;5072793;28;20093;-65
2022/08/06 04:43:06;;;;;;;2.72;1.40;;;10.80;99.90;;;;;;5064095;28;20075;-65
2022/08/06 04:45:33;;;;;;;1.67;1.23;;;11.20;99.90;;;;;;5067634;28;20060;-65
2022/08/06 04:48:00;;;;;;;1.55;1.20;;;11.20;99.90;;;;;;5073104;28;20041;-65
2022/08/06 04:50:26;;;;;;;2.38;1.30;;;11.20;99.90;;;;;;5072841;28;20520;-66
2022/08/06 04:52:51;;;;;;;4.25;1.42;;;11.00;99.90;;;;;;5072996;28;20048;-66
2022/08/06 04:55:20;;;;;;;1.80;1.23;;;11.10;99.90;;;;;;5073042;28;20041;-65
2022/08/06 04:57:46;;;;;;;2.95;1.17;;;11.10;99.90;;;;;;5056724;28;20050;-65
2022/08/06 05:00:12;;;;;;;2.47;1.40;;;11.10;99.90;;;;;;5062622;28;20049;-65
2022/08/06 05:02:37;;;;;;;1.85;1.40;;;11.00;99.90;;;;;;5069209;28;20052;-66
2022/08/06 05:05:05;;;;;;;2.78;1.83;;;11.30;99.90;;;;;;5072899;28;20155;-65
2022/08/06 05:07:33;;;;;;;3.45;1.42;;;11.40;99.90;;;;;;5071453;28;20055;-65
2022/08/06 05:09:59;;;;;;;3.38;2.05;;;11.50;99.90;;;;;;5071263;28;20097;-65
2022/08/06 05:12:38;;;;;;;2.63;1.98;;;11.50;99.90;;;;;;5070899;28;20127;-65
2022/08/06 05:15:19;;;;;;;4.93;1.92;;;11.70;99.90;;;;;;5046116;28;20037;-65
2022/08/06 05:17:58;;;;;;;2.85;2.03;;;11.60;99.90;;;;;;5038207;28;20037;-66
2022/08/06 05:20:26;;;;;;;2.38;1.80;;;11.60;99.90;;;;;;5050920;28;20514;-65
2022/08/06 05:22:55;;;;;;;1.98;1.73;;;11.60;99.90;;;;;;5051777;28;20033;-65
2022/08/06 05:25:21;;;;;;;3.22;2.10;;;11.60;99.90;;;;;;5050764;28;20505;-66
2022/08/06 05:27:46;;;;;;;3.05;2.05;;;11.70;99.90;;;;;;5052350;28;20037;-66
2022/08/06 05:30:12;;;;;;;2.65;1.92;;;12.00;99.90;;;;;;5040772;28;20112;-65
2022/08/06 05:32:43;;;;;;;5.22;2.22;;;11.90;99.90;;;;;;5052419;28;20049;-65
2022/08/06 05:35:09;;;;;;;10.07;2.15;;;;;;;;;;5050819;28;20091;-65
2022/08/06 05:37:36;;;;;;;11.77;2.17;;;;;;;;;;5052338;28;20044;-65
2022/08/06 05:40:02;;;;;;;5.40;1.73;;;12.00;99.90;;;;;;5035109;28;20060;-65
2022/08/06 05:42:28;;;;;;;4.15;1.73;;;;;;;;;;5032666;28;20029;-65
2022/08/06 05:44:53;;;;;;;4.72;2.40;;;12.30;99.90;;;;;;5036243;28;20110;-65
2022/08/06 05:47:23;;;;;;;2.47;1.95;;;13.40;99.90;;;;;;5033187;28;20045;-65
2022/08/06 05:49:55;;;;;;;2.80;1.70;;;14.20;99.90;;;;;;5034666;28;20124;-65
2022/08/06 05:52:28;;;;;;;4.72;1.73;;;15.30;99.90;;;;;;5040212;28;20037;-66
2022/08/06 05:55:00;;;;;;;3.33;1.52;;;16.20;99.90;;;;;;5048485;28;20034;-65
2022/08/06 05:57:37;;;;;;;2.65;1.10;;;16.20;99.90;;;;;;5035423;28;20049;-65
2022/08/06 06:00:10;;;;;;;4.47;1.48;;;16.30;99.90;;;;;;5033850;28;20054;-65
2022/08/06 06:02:39;;;;;;;2.42;0.93;;;17.80;99.90;;;;;;5049306;28;20494;-65
2022/08/06 06:05:06;;;;;;;2.92;1.15;;;18.30;99.90;;;;;;5054298;28;20133;-65
2022/08/06 06:07:32;;;;;;;2.70;0.75;;;19.00;99.90;;;;;;5054052;28;20149;-65
2022/08/06 06:09:58;;;;;;;4.03;0.93;;;19.80;99.90;;;;;;5044153;28;20132;-67
2022/08/06 06:12:24;;;;;;;3.25;0.60;;;20.20;99.90;;;;;;5050150;28;20080;-65
2022/08/06 06:14:51;;;;;;;1.42;0.80;;;20.70;99.90;;;;;;5052959;28;20441;-65
2022/08/06 06:17:48;;;;;;;1.45;0.50;;;21.10;99.90;;;;;;5054005;28;20506;-65
2022/08/06 06:20:47;;;;;;;3.00;0.50;;;21.70;99.90;;;;;;5041720;28;20041;-66
2022/08/06 06:23:44;;;;;;;2.35;0.52;;;22.10;99.90;;;;;;5062010;28;20044;-66
2022/08/06 06:26:28;;;;;;;2.25;0.65;;;23.00;99.90;;;;;;5071478;28;20051;-66
2022/08/06 06:29:21;;;;;;;4.10;0.40;;;23.60;99.90;;;;;;5070801;28;20045;-66
2022/08/06 06:32:07;;;;;;;3.28;0.30;;;24.20;99.90;;;;;;5049165;28;20072;-66
2022/08/06 06:34:48;;;;;;;1.55;0.30;;;24.70;99.90;;;;;;5049299;28;20041;-67
2022/08/06 06:37:32;;;;;;;2.83;0.20;;;24.50;99.90;;;;;;5052456;28;20387;-66
2022/08/06 06:40:16;;;;;;;3.17;0.60;;;24.50;99.90;;;;;;5052995;28;20123;-66
2022/08/06 06:42:54;;;;;;;3.28;0.20;;;25.10;99.90;;;;;;5049400;28;20295;-66
2022/08/06 06:45:56;;;;;;;3.15;0.30;;;25.70;99.90;;;;;;5052550;28;20079;-66
2022/08/06 06:48:31;;;;;;;4.85;0.40;;;25.70;99.90;;;;;;5052027;28;20489;-65
2022/08/06 06:51:02;;;;;;;4.35;0.22;;;26.10;99.90;;;;;;5053165;28;20036;-66
2022/08/06 06:53:32;;;;;;;1.98;0.10;;;26.40;99.90;;;;;;5046528;28;20056;-65
2022/08/06 06:56:00;;;;;;;4.95;0.20;;;26.60;99.90;;;;;;5037867;28;20033;-65
2022/08/06 06:58:45;;;;;;;2.38;0.20;;;27.10;99.90;;;;;;5042009;28;20060;-68
2022/08/06 07:01:12;;;;;;;2.85;0.20;;;27.60;99.90;;;;;;5051997;28;20501;-68
2022/08/06 07:03:41;;;;;;;1.33;0.20;;;28.70;99.90;;;;;;5054094;28;20051;-68
2022/08/06 07:06:08;;;;;;;2.75;0.45;;;26.30;99.90;;;;;;5054262;28;20037;-68
2022/08/06 07:08:41;;;;;;;0.60;0.10;;;25.60;99.90;;;;;;5053390;28;20044;-68
2022/08/06 07:11:07;;;;;;;2.22;0.20;;;24.60;99.90;;;;;;5054647;28;20102;-68
2022/08/06 07:13:34;;;;;;;2.20;0.10;;;23.10;99.90;;;;;;5053859;28;20048;-68
2022/08/06 07:16:01;;;;;;;1.52;0.35;;;24.20;99.90;;;;;;5054775;28;20410;-68
2022/08/06 07:18:27;;;;;;;1.73;0.20;;;22.00;99.90;;;;;;5054899;28;20044;-68
2022/08/06 07:20:54;;;;;;;1.60;0.25;;;22.70;99.90;;;;;;5063252;28;20398;-68
2022/08/06 07:23:22;;;;;;;2.45;0.40;;;21.10;99.90;;;;;;5073439;28;20041;-68
2022/08/06 07:25:49;;;;;;;1.08;0.20;;;20.70;99.90;;;;;;5073602;28;20143;-68
2022/08/06 07:28:15;;;;;;;1.98;0.30;;;20.30;99.90;;;;;;5074454;28;20040;-68
2022/08/06 07:30:42;;;;;;;1.27;0.30;;;20.00;99.90;;;;;;5074495;28;20498;-68
2022/08/06 07:33:09;;;;;;;2.90;0.22;;;19.60;99.90;;;;;;5074719;28;20466;-68
2022/08/06 07:35:36;;;;;;;2.10;0.30;;;19.50;99.90;;;;;;5073214;28;20045;-68
2022/08/06 07:38:07;;;;;;;1.90;0.20;;;19.50;99.90;;;;;;5073085;28;20048;-68
2022/08/06 07:40:43;;;;;;;2.35;0.30;;;19.30;99.90;;;;;;5073009;28;20128;-68
2022/08/06 07:43:12;;;;;;;6.57;0.57;;;19.40;99.90;;;;;;5073426;28;20039;-68
2022/08/06 07:45:38;;;;;;;1.85;0.30;;;19.10;99.90;;;;;;5071857;28;20033;-68
2022/08/06 07:48:07;;;;;;;2.08;0.30;;;18.90;99.90;;;;;;5061497;28;20044;-68
2022/08/06 07:50:33;;;;;;;3.08;0.60;;;18.80;99.90;;;;;;5073915;28;20037;-68
2022/08/06 07:52:59;;;;;;;3.90;1.15;;;18.80;99.90;;;;;;5074153;28;20525;-68
2022/08/06 07:55:26;;;;;;;3.30;0.90;;;19.00;99.90;;;;;;5074317;28;20420;-68
2022/08/06 07:57:57;;;;;;;3.75;1.38;;;19.00;99.90;;;;;;5073677;28;20518;-68
2022/08/06 08:00:24;;;;;;;2.30;0.73;;;19.00;99.90;;;;;;5073000;28;20052;-68
2022/08/06 08:08:21;;;;;;;2.92;1.20;;;19.30;99.90;;;;;;5072559;28;20040;-68
2022/08/06 08:10:48;;;;;;;3.05;0.90;;;19.00;99.90;;;;;;5074222;28;20040;-68
2022/08/06 08:13:18;;;;;;;4.20;0.95;;;19.30;99.90;;;;;;5072956;28;20409;-68
2022/08/06 08:15:45;;;;;;;4.63;0.90;;;20.20;99.90;;;;;;5073987;28;20101;-68
2022/08/06 08:18:10;;;;;;;3.38;0.90;;;19.20;99.90;;;;;;5073620;28;20041;-68
2022/08/06 08:20:39;;;;;;;6.95;1.35;;;19.00;99.90;;;;;;5073330;28;20410;-67
2022/08/06 08:23:07;;;;;;;2.65;1.33;;;19.00;99.90;;;;;;5072297;28;20111;-68
2022/08/06 08:25:33;;;;;;;6.40;1.40;;;18.80;99.90;;;;;;5073368;28;20439;-68
2022/08/06 08:27:59;;;;;;;3.33;1.17;;;19.10;99.90;;;;;;5073222;28;20525;-67
2022/08/06 08:30:24;;;;;;;3.83;1.45;;;19.20;99.90;;;;;;5073428;28;20033;-68
2022/08/06 08:32:50;;;;;;;4.95;1.55;;;19.30;99.90;;;;;;5072018;28;20056;-67
2022/08/06 08:35:16;;;;;;;6.15;1.33;;;19.40;99.90;;;;;;5073450;28;20435;-67
2022/08/06 08:37:42;;;;;;;3.70;1.33;;;19.30;99.90;;;;;;5073223;28;20110;-68
2022/08/06 08:40:08;;;;;;;3.00;1.13;;;19.40;99.90;;;;;;5073450;28;20067;-68
2022/08/06 08:42:39;;;;;;;3.83;1.30;;;19.50;99.90;;;;;;5054974;28;20515;-67
2022/08/06 08:45:05;;;;;;;5.93;1.50;;;19.40;99.90;;;;;;5072274;28;20119;-67
2022/08/06 08:47:34;;;;;;;3.05;1.40;;;19.50;99.90;;;;;;5041898;28;20055;-68
2022/08/06 08:50:02;;;;;;;2.75;1.23;;;19.30;99.90;;;;;;5071709;28;20063;-68
2022/08/06 08:52:34;;;;;;;2.25;1.10;;;19.50;99.90;;;;;;5071649;28;20048;-67
2022/08/06 08:55:09;;;;;;;4.80;1.70;;;19.40;99.90;;;;;;5072099;28;20048;-68
2022/08/06 08:57:36;;;;;;;5.88;1.45;;;19.60;99.90;;;;;;5072484;28;20510;-68
2022/08/06 09:00:04;;;;;;;4.32;1.40;;;19.60;99.90;;;;;;5072976;28;20066;-67
2022/08/06 09:02:30;;;;;;;3.63;1.55;;;19.70;99.90;;;;;;5054866;28;20044;-68
2022/08/06 09:04:56;;;;;;;4.00;1.33;;;19.70;99.90;;;;;;5071659;28;20083;-68
2022/08/06 09:07:22;;;;;;;6.88;1.50;;;19.80;99.90;;;;;;5072692;28;20457;-67
2022/08/06 09:09:48;;;;;;;3.25;1.40;;;19.80;99.90;;;;;;5071174;28;20071;-68
2022/08/06 09:12:14;;;;;;;2.35;1.20;;;19.90;99.90;;;;;;5071604;28;20074;-67
2022/08/06 09:14:43;;;;;;;2.40;1.10;;;19.90;99.90;;;;;;5071601;28;20473;-68
2022/08/06 09:17:09;;;;;;;3.20;1.50;;;19.90;99.90;;;;;;5072609;28;20044;-68
2022/08/06 09:19:35;;;;;;;3.08;1.20;;;20.00;99.90;;;;;;5071422;28;20037;-68
2022/08/06 09:22:01;;;;;;;2.90;1.08;;;20.00;99.90;;;;;;5057253;28;20119;-68
2022/08/06 09:24:27;;;;;;;2.30;1.40;;;20.10;99.90;;;;;;5071060;28;20467;-68
2022/08/06 09:27:04;;;;;;;2.13;1.27;;;19.90;99.90;;;;;;5072389;28;20456;-68
2022/08/06 09:29:30;;;;;;;4.32;1.42;;;19.90;99.90;;;;;;5071229;28;20076;-68
2022/08/06 09:31:57;;;;;;;4.10;1.38;;;19.80;99.90;;;;;;5072347;28;20095;-67
2022/08/06 09:34:31;;;;;;;3.22;1.30;;;20.10;99.90;;;;;;5072434;28;20057;-67
2022/08/06 09:36:57;;;;;;;2.92;1.40;;;20.10;99.90;;;;;;5072412;28;20036;-68
2022/08/06 09:39:40;;;;;;;1.80;1.10;;;20.00;99.90;;;;;;5071138;28;20044;-68
2022/08/06 09:42:07;;;;;;;2.30;1.30;;;20.20;99.90;;;;;;5071030;28;20048;-67
2022/08/06 09:44:33;;;;;;;2.20;1.30;;;20.60;99.90;;;;;;5072352;28;20032;-68
2022/08/06 09:47:00;;;;;;;2.30;1.25;;;20.30;99.90;;;;;;5058297;28;20045;-68
2022/08/06 09:49:26;;;;;;;3.63;1.23;;;20.50;99.90;;;;;;5071958;28;20045;-68
2022/08/06 09:52:13;;;;;;;3.63;1.33;;;20.40;99.90;;;;;;5072250;28;20036;-67
2022/08/06 09:54:39;;;;;;;3.03;1.00;;;20.30;99.90;;;;;;5045564;28;20520;-68
2022/08/06 09:57:05;;;;;;;2.67;1.52;;;20.20;99.90;;;;;;5071021;28;20037;-68
2022/08/06 09:59:42;;;;;;;2.85;1.08;;;20.10;99.90;;;;;;5071836;28;20688;-67
2022/08/06 10:02:13;;;;;;;3.17;0.90;;;20.10;99.90;;;;;;5070834;28;20123;-68
2022/08/06 10:04:39;;;;;;;3.20;1.10;;;20.00;99.90;;;;;;5072319;28;20119;-68
2022/08/06 10:07:05;;;;;;;6.35;1.27;;;19.80;99.90;;;;;;5072012;28;20471;-68
2022/08/06 10:09:32;;;;;;;8.43;1.25;;;19.80;99.90;;;;;;5071055;28;20036;-68
2022/08/06 10:11:58;;;;;;;5.18;1.60;;;20.00;99.90;;;;;;5071931;28;20044;-68
2022/08/06 10:14:28;;;;;;;1.98;0.77;;;19.90;99.90;;;;;;5071809;28;20044;-68
2022/08/06 10:17:11;;;;;;;3.05;1.15;;;20.20;99.90;;;;;;5071938;28;20048;-68
2022/08/06 10:19:39;;;;;;;2.85;1.10;;;20.00;99.90;;;;;;5072060;28;20449;-68
2022/08/06 10:22:11;;;;;;;2.80;1.17;;;20.30;99.90;;;;;;5072050;28;20036;-68
2022/08/06 10:24:41;;;;;;;3.33;0.90;;;21.70;99.90;;;;;;5072075;28;20041;-68
2022/08/06 10:27:12;;;;;;;4.20;1.75;;;20.20;99.90;;;;;;5071821;28;20486;-68
2022/08/06 10:29:52;;;;;;;4.57;1.10;;;20.20;99.90;;;;;;5071919;28;20052;-68
2022/08/06 10:32:33;;;;;;;2.20;0.75;;;20.10;99.90;;;;;;5071671;28;20036;-68
2022/08/06 10:35:02;;;;;;;2.28;1.17;;;20.10;99.90;;;;;;5070820;28;20051;-68
2022/08/06 10:37:31;;;;;;;1.90;0.98;;;19.60;99.90;;;;;;5072139;28;20040;-68
2022/08/06 10:40:00;;;;;;;3.65;0.98;;;19.80;99.90;;;;;;5074367;28;20076;-67
2022/08/06 10:42:26;;;;;;;2.60;1.00;;;21.10;99.90;;;;;;5074235;28;20068;-67
2022/08/06 10:44:52;;;;;;;1.65;0.80;;;19.50;99.90;;;;;;5075452;28;20074;-68
2022/08/06 10:47:18;;;;;;;4.30;1.13;;;19.60;99.90;;;;;;5061854;28;20067;-68
2022/08/06 10:49:45;;;;;;;1.92;1.00;;;19.50;99.90;;;;;;5074057;28;20062;-68
2022/08/06 10:52:12;;;;;;;1.77;0.90;;;19.70;99.90;;;;;;5074079;28;20074;-68
2022/08/06 10:54:39;;;;;;;4.28;1.30;;;19.50;99.90;;;;;;5075387;28;20502;-67
2022/08/06 10:57:08;;;;;;;3.28;1.33;;;19.40;99.90;;;;;;5074984;28;20445;-67
2022/08/06 10:59:34;;;;;;;2.63;1.20;;;19.40;99.90;;;;;;5074909;28;20059;-68
2022/08/06 11:02:12;;;;;;;2.17;1.30;;;19.60;99.90;;;;;;5074911;28;20503;-68
2022/08/06 11:04:50;;;;;;;2.55;1.23;;;19.50;99.90;;;;;;5075154;28;20120;-67
2022/08/06 11:07:40;;;;;;;1.77;1.02;;;19.40;99.90;;;;;;5057545;28;20469;-67
2022/08/06 11:10:24;;;;;;;2.72;0.95;;;19.40;99.90;;;;;;5074313;28;20071;-67
2022/08/06 11:12:57;;;;;;;3.45;1.40;;;19.30;99.90;;;;;;5074637;28;20447;-67
2022/08/06 11:15:23;;;;;;;3.72;1.33;;;19.40;99.90;;;;;;5073783;28;20044;-68
2022/08/06 11:18:01;;;;;;;2.13;1.20;;;19.80;99.90;;;;;;5074596;28;20045;-68
2022/08/06 11:20:33;;;;;;;3.42;1.10;;;19.60;99.90;;;;;;5073372;28;20079;-68
2022/08/06 11:23:05;;;;;;;3.25;1.30;;;20.00;99.90;;;;;;5074944;28;20068;-68
2022/08/06 11:25:47;;;;;;;6.50;1.80;;;19.90;99.90;;;;;;5074575;28;20032;-68
2022/08/06 11:28:14;;;;;;;3.25;1.35;;;20.20;99.90;;;;;;5074829;28;20052;-68
2022/08/06 11:30:46;;;;;;;3.60;1.23;;;19.90;99.90;;;;;;5073174;28;20086;-68
2022/08/06 11:33:33;;;;;;;4.05;1.02;;;20.10;99.90;;;;;;5062425;28;20379;-68
2022/08/06 11:36:00;;;;;;;4.00;1.30;;;20.10;99.90;;;;;;5036492;28;20088;-68
2022/08/06 11:38:47;;;;;;;2.75;1.52;;;20.20;99.90;;;;;;5073287;28;20048;-68
2022/08/06 11:41:24;;;;;;;4.32;1.10;;;20.40;99.90;;;;;;5073030;28;20036;-68
2022/08/06 11:43:53;;;;;;;3.20;0.82;;;20.40;99.90;;;;;;5074154;28;20490;-68
2022/08/06 11:46:36;;;;;;;2.53;1.25;;;20.40;99.90;;;;;;5065291;28;20238;-67
2022/08/06 11:49:03;;;;;;;2.80;1.52;;;20.30;99.90;;;;;;5068480;28;20533;-68
2022/08/06 11:51:52;;;;;;;2.72;1.27;;;20.00;99.90;;;;;;5074295;28;20068;-67
2022/08/06 11:54:27;;;;;;;4.20;1.73;;;20.10;99.90;;;;;;5074209;28;20036;-68
2022/08/06 11:57:02;;;;;;;1.90;1.08;;;20.10;99.90;;;;;;5072682;28;20094;-68
2022/08/06 11:59:28;;;;;;;;;;;20.00;99.90;;;;;;5073178;28;20075;-67
2022/08/06 12:01:54;;;;;;;3.78;1.30;;;20.10;99.90;;;;;;5072695;28;20417;-68
2022/08/06 12:04:31;;;;;;;3.15;1.80;;;19.90;99.90;;;;;;5073773;28;20068;-68
2022/08/06 12:07:27;;;;;;;3.65;1.20;;;19.90;99.90;;;;;;5072504;28;20045;-68
2022/08/06 12:10:11;;;;;;;2.33;1.13;;;20.00;99.90;;;;;;5073900;28;20038;-68
2022/08/06 12:12:50;;;;;;;2.75;1.20;;;20.20;99.90;;;;;;5072909;28;20044;-68
2022/08/06 12:15:16;;;;;;;4.40;1.63;;;20.20;99.90;;;;;;5073023;28;20044;-68
2022/08/06 12:18:03;;;;;;;2.25;0.82;;;20.30;99.90;;;;;;5072435;28;20628;-68
2022/08/06 12:20:50;;;;;;;3.45;1.38;;;20.40;99.90;;;;;;5074124;28;20040;-68
2022/08/06 12:23:21;;;;;;;2.75;1.40;;;20.40;99.90;;;;;;5073385;28;20093;-68
2022/08/06 12:25:48;;;;;;;3.47;1.27;;;20.20;99.90;;;;;;5073753;28;20045;-68
2022/08/06 12:28:15;;;;;;;3.92;1.00;;;20.50;99.90;;;;;;5073487;28;20177;-68
2022/08/06 12:30:52;;;;;;;2.92;1.30;;;20.10;99.90;;;;;;5072321;28;20119;-68
2022/08/06 12:33:20;;;;;;;3.88;1.23;;;20.10;99.90;;;;;;5073866;28;20067;-68
2022/08/06 12:35:49;;;;;;;2.45;1.35;;;20.20;99.90;;;;;;5073431;28;20073;-68
2022/08/06 12:38:15;;;;;;;4.07;1.00;;;20.20;99.90;;;;;;5073278;28;20040;-68
2022/08/06 12:40:54;;;;;;;2.10;0.90;;;19.90;99.90;;;;;;5073053;28;20572;-67
2022/08/06 12:43:19;;;;;;;1.80;0.68;;;20.20;99.90;;;;;;5073286;28;20044;-68
2022/08/06 12:45:45;;;;;;;3.88;0.98;;;20.30;99.90;;;;;;5071842;28;20039;-68
2022/08/06 12:48:12;;;;;;;2.50;0.90;;;20.20;99.90;;;;;;5073102;28;20111;-68
2022/08/06 12:50:40;;;;;;;3.00;0.98;;;20.40;99.90;;;;;;5072983;28;20066;-67
2022/08/06 12:53:07;;;;;;;2.22;1.15;;;20.50;99.90;;;;;;5072790;28;20072;-68
2022/08/06 12:55:41;;;;;;;1.83;0.80;;;20.60;99.90;;;;;;5072073;28;20490;-68
2022/08/06 12:58:07;;;;;;;2.67;1.23;;;20.40;99.90;;;;;;5071522;28;20048;-68
2022/08/06 13:00:33;;;;;;;2.78;0.93;;;22.20;99.90;;;;;;5071182;28;20040;-68
2022/08/06 13:02:59;;;;;;;3.67;0.90;;;20.50;99.90;;;;;;5072590;28;20045;-67
2022/08/06 13:05:27;;;;;;;1.92;0.93;;;20.70;99.90;;;;;;5073012;28;20534;-68
2022/08/06 13:07:55;;;;;;;2.20;1.30;;;20.30;99.90;;;;;;5072757;28;20040;-68
2022/08/06 13:10:21;;;;;;;2.33;0.68;;;20.60;99.90;;;;;;5071744;28;20559;-67
2022/08/06 13:13:02;;;;;;;1.20;0.80;;;20.90;99.90;;;;;;5071488;28;20040;-68